Accueil
METAR-TAF:

METAR-TAF

Aéroports :

St Athan, Pays de Galles

latitude: 51-24N, longitude: 003-26W, altitude: 50 m

Observation

Le bulletin a été fait il y a 45 minutes, à 01:50 UTC
Vent 8 kt de ouest/nord-ouest
Température 9°C
Humidité 100%
Pression 996 hPa
Visibilité: 2600 m
pluie

METAR: EGDX 010150Z AUTO 29008KT 2600 RA BKN012/// SCT024/// 09/09 Q0996

Heure: 03:35 (02:35 UTC)

Prévision

Le bulletin a été fait il y a 13 heures et 29 minutes, à 13:06 UTC
Prévision valable du 30 à 15 UTC au 30 à 18 UTC
Vent 16 kt de est/sud-est avec des rafales jusqu'à 26 kt
Visibilité 10 km ou plus
Nuages fragmentés à une hauteur de 2200 ft
Temporairement
du 30 à 15 UTC au 30 à 18 UTC
Visibilité: 6000 m
pluie

TAF: EGDX 301306Z 3015/3018 12016G26KT 9999 BKN022 TEMPO 3015/3018 6000 RA

Observations et prévisions météorologiques de plus de 4000 aéroports (messages METAR et TAF).

Les stations disponibles sont représentées par des disques jaunes et rouges sur la carte.

Passer la souris dessus pour voir le nom de la station.

Cliquer dessus pour voir les observations et prévisions météorologiques.

Pour changer de carte: cliquez sur les boutons verts avec une croix noire pour zoomer, sur le bouton vert avec un tiret pour effectuer un zoom arrière, ou sur les flèches vertes pour les cartes adjacentes.


METAR-TAF: